Weather at Dyess Air Force Base

Public forecast

Using degrees Fahrenheit for public forecast. Weather courtesy of forecast.io.

Current aviation weather report (METAR) for Dyess Air Force Base

Retrieved 2021/07/24 22:56 UTC (47 minutes ago):

KDYS 242256Z AUTO 14008KT 10SM M 37/16 A2996 RMK AO2 SLP093 T03650161

Aviation forecast (TAF) for Dyess Air Force Base

Retrieved 2021/07/24 22:34 UTC (1 hour ago):

TAF KDYS 242219Z 2422/2602 17012KT 9999 SCT120 QNH2993INS BECMG 2423/2500 18012KT 9999 SKC QNH2989INS TEMPO 2510/2518 20012KT TX37/2520Z TN23/2512Z LAST NO AMDS AFT 2422 NEXT 2515